sensor_id;sensor_type;location;lat;lon;timestamp;pressure;altitude;pressure_sealevel;temperature;humidity
55466;BME280;41329;41.594;23.810;2023-04-25T00:00:21;94657.81;;;13.31;70.91
55466;BME280;41329;41.594;23.810;2023-04-25T00:02:47;94656.25;;;13.30;71.03
55466;BME280;41329;41.594;23.810;2023-04-25T00:05:12;94640.38;;;13.27;71.22
55466;BME280;41329;41.594;23.810;2023-04-25T00:07:40;94647.13;;;13.22;71.19
55466;BME280;41329;41.594;23.810;2023-04-25T00:10:08;94624.59;;;13.06;71.06
55466;BME280;41329;41.594;23.810;2023-04-25T00:12:34;94649.97;;;13.15;71.17
55466;BME280;41329;41.594;23.810;2023-04-25T00:14:59;94636.50;;;13.07;71.44
55466;BME280;41329;41.594;23.810;2023-04-25T00:17:25;94636.50;;;13.07;71.66
55466;BME280;41329;41.594;23.810;2023-04-25T00:19:50;94634.91;;;13.09;71.81
55466;BME280;41329;41.594;23.810;2023-04-25T00:22:16;94633.31;;;13.12;71.45
55466;BME280;41329;41.594;23.810;2023-04-25T00:24:42;94625.78;;;13.09;71.59
55466;BME280;41329;41.594;23.810;2023-04-25T00:27:08;94631.72;;;13.11;71.47
55466;BME280;41329;41.594;23.810;2023-04-25T00:29:33;94632.19;;;13.02;71.87
55466;BME280;41329;41.594;23.810;2023-04-25T00:31:59;94610.34;;;12.94;71.88
55466;BME280;41329;41.594;23.810;2023-04-25T00:34:24;94611.53;;;13.03;72.26
55466;BME280;41329;41.594;23.810;2023-04-25T00:36:50;94620.22;;;13.12;72.23
55466;BME280;41329;41.594;23.810;2023-04-25T00:39:15;94617.44;;;13.12;72.54
55466;BME280;41329;41.594;23.810;2023-04-25T00:41:41;94612.31;;;13.04;72.38
55466;BME280;41329;41.594;23.810;2023-04-25T00:44:08;94617.88;;;13.07;72.15
55466;BME280;41329;41.594;23.810;2023-04-25T00:46:34;94617.84;;;13.11;72.33
55466;BME280;41329;41.594;23.810;2023-04-25T00:49:00;94592.91;;;12.93;72.08
55466;BME280;41329;41.594;23.810;2023-04-25T00:51:26;94615.50;;;13.02;72.28
55466;BME280;41329;41.594;23.810;2023-04-25T00:53:52;94612.75;;;12.99;72.20
55466;BME280;41329;41.594;23.810;2023-04-25T00:56:18;94611.53;;;12.96;72.43
55466;BME280;41329;41.594;23.810;2023-04-25T00:58:44;94607.94;;;13.06;72.57
55466;BME280;41329;41.594;23.810;2023-04-25T01:01:10;94609.53;;;13.07;72.26
55466;BME280;41329;41.594;23.810;2023-04-25T01:03:38;94617.84;;;13.11;72.43
55466;BME280;41329;41.594;23.810;2023-04-25T01:06:10;94607.56;;;13.04;72.17
55466;BME280;41329;41.594;23.810;2023-04-25T01:08:38;94612.28;;;13.11;72.60
55466;BME280;41329;41.594;23.810;2023-04-25T01:11:05;94615.47;;;13.09;72.24
55466;BME280;41329;41.594;23.810;2023-04-25T01:13:30;94601.59;;;13.06;71.91
55466;BME280;41329;41.594;23.810;2023-04-25T01:15:57;94602.44;;;12.99;71.65
55466;BME280;41329;41.594;23.810;2023-04-25T01:18:23;94590.91;;;13.04;71.94
55466;BME280;41329;41.594;23.810;2023-04-25T01:20:51;94586.16;;;13.05;72.06
55466;BME280;41329;41.594;23.810;2023-04-25T01:23:18;94594.03;;;13.10;72.07
55466;BME280;41329;41.594;23.810;2023-04-25T01:25:44;94563.97;;;12.98;72.13
55466;BME280;41329;41.594;23.810;2023-04-25T01:28:10;94565.94;;;12.94;71.94
55466;BME280;41329;41.594;23.810;2023-04-25T01:30:36;94583.75;;;13.03;71.88
55466;BME280;41329;41.594;23.810;2023-04-25T01:33:03;94576.63;;;12.95;71.80
55466;BME280;41329;41.594;23.810;2023-04-25T01:35:30;94567.16;;;12.86;72.26
55466;BME280;41329;41.594;23.810;2023-04-25T01:37:56;94578.25;;;12.93;72.19
55466;BME280;41329;41.594;23.810;2023-04-25T01:40:22;94585.41;;;12.90;72.33
55466;BME280;41329;41.594;23.810;2023-04-25T01:42:49;94582.22;;;12.92;72.38
55466;BME280;41329;41.594;23.810;2023-04-25T01:45:14;94566.78;;;12.84;72.60
55466;BME280;41329;41.594;23.810;2023-04-25T01:47:40;94565.56;;;12.92;72.75
55466;BME280;41329;41.594;23.810;2023-04-25T01:50:08;94575.84;;;12.95;72.97
55466;BME280;41329;41.594;23.810;2023-04-25T01:52:34;94555.66;;;12.87;72.54
55466;BME280;41329;41.594;23.810;2023-04-25T01:55:01;94560.38;;;12.94;72.49
55466;BME280;41329;41.594;23.810;2023-04-25T01:57:26;94560.81;;;12.85;72.71
55466;BME280;41329;41.594;23.810;2023-04-25T01:59:58;94558.81;;;12.89;72.70
55466;BME280;41329;41.594;23.810;2023-04-25T02:02:24;94554.06;;;12.90;72.68
55466;BME280;41329;41.594;23.810;2023-04-25T02:04:49;94539.47;;;12.75;72.70
55466;BME280;41329;41.594;23.810;2023-04-25T02:07:15;94573.13;;;12.88;72.87
55466;BME280;41329;41.594;23.810;2023-04-25T02:09:41;94556.47;;;12.88;72.86
55466;BME280;41329;41.594;23.810;2023-04-25T02:12:08;94543.75;;;12.87;72.60
55466;BME280;41329;41.594;23.810;2023-04-25T02:14:33;94534.34;;;12.70;72.36
55466;BME280;41329;41.594;23.810;2023-04-25T02:16:59;94548.56;;;12.79;72.91
55466;BME280;41329;41.594;23.810;2023-04-25T02:19:25;94557.66;;;12.83;72.72
55466;BME280;41329;41.594;23.810;2023-04-25T02:21:50;94535.53;;;12.69;72.42
55466;BME280;41329;41.594;23.810;2023-04-25T02:24:15;94545.78;;;12.79;72.70
55466;BME280;41329;41.594;23.810;2023-04-25T02:26:41;94537.13;;;12.70;72.44
55466;BME280;41329;41.594;23.810;2023-04-25T02:29:06;94531.53;;;12.77;72.34
55466;BME280;41329;41.594;23.810;2023-04-25T02:31:32;94532.31;;;12.78;72.54
55466;BME280;41329;41.594;23.810;2023-04-25T02:33:57;94543.03;;;12.76;72.82
55466;BME280;41329;41.594;23.810;2023-04-25T02:36:23;94549.00;;;12.74;72.79
55466;BME280;41329;41.594;23.810;2023-04-25T02:38:49;94532.38;;;12.64;72.25
55466;BME280;41329;41.594;23.810;2023-04-25T02:41:14;94544.63;;;12.70;72.55
55466;BME280;41329;41.594;23.810;2023-04-25T02:43:40;94530.03;;;12.55;72.60
55466;BME280;41329;41.594;23.810;2023-04-25T02:46:05;94546.66;;;12.62;72.83
55466;BME280;41329;41.594;23.810;2023-04-25T02:48:31;94549.84;;;12.61;72.66
55466;BME280;41329;41.594;23.810;2023-04-25T02:50:56;94535.22;;;12.53;72.88
55466;BME280;41329;41.594;23.810;2023-04-25T02:53:22;94549.03;;;12.60;72.97
55466;BME280;41329;41.594;23.810;2023-04-25T02:55:47;94552.63;;;12.57;72.67
55466;BME280;41329;41.594;23.810;2023-04-25T02:58:13;94547.09;;;12.57;72.53
55466;BME280;41329;41.594;23.810;2023-04-25T03:00:38;94550.63;;;12.57;72.56
55466;BME280;41329;41.594;23.810;2023-04-25T03:03:04;94531.25;;;12.47;72.40
55466;BME280;41329;41.594;23.810;2023-04-25T03:05:29;94545.50;;;12.56;72.42
55466;BME280;41329;41.594;23.810;2023-04-25T03:07:55;94544.75;;;12.52;72.41
55466;BME280;41329;41.594;23.810;2023-04-25T03:10:20;94546.31;;;12.49;72.52
55466;BME280;41329;41.594;23.810;2023-04-25T03:12:45;94541.56;;;12.50;72.39
55466;BME280;41329;41.594;23.810;2023-04-25T03:15:11;94536.81;;;12.47;72.46
55466;BME280;41329;41.594;23.810;2023-04-25T03:17:36;94541.19;;;12.44;72.21
55466;BME280;41329;41.594;23.810;2023-04-25T03:20:02;94526.63;;;12.23;71.72
55466;BME280;41329;41.594;23.810;2023-04-25T03:22:29;94553.13;;;12.27;71.81
55466;BME280;41329;41.594;23.810;2023-04-25T03:24:54;94551.19;;;12.24;71.90
55466;BME280;41329;41.594;23.810;2023-04-25T03:27:20;94542.44;;;12.22;72.23
55466;BME280;41329;41.594;23.810;2023-04-25T03:29:45;94550.38;;;12.24;72.41
55466;BME280;41329;41.594;23.810;2023-04-25T03:32:11;94542.47;;;12.19;72.90
55466;BME280;41329;41.594;23.810;2023-04-25T03:34:36;94494.22;;;11.95;72.88
55466;BME280;41329;41.594;23.810;2023-04-25T03:37:01;94545.63;;;12.24;73.09
55466;BME280;41329;41.594;23.810;2023-04-25T03:39:27;94539.72;;;12.12;73.08
55466;BME280;41329;41.594;23.810;2023-04-25T03:41:52;94536.94;;;12.19;72.89
55466;BME280;41329;41.594;23.810;2023-04-25T03:44:18;94523.91;;;11.98;73.16
55466;BME280;41329;41.594;23.810;2023-04-25T03:46:43;94545.28;;;12.08;73.06
55466;BME280;41329;41.594;23.810;2023-04-25T03:49:08;94542.13;;;12.03;73.49
55466;BME280;41329;41.594;23.810;2023-04-25T03:51:34;94548.47;;;12.03;73.64
55466;BME280;41329;41.594;23.810;2023-04-25T03:54:00;94525.50;;;11.92;73.79
55466;BME280;41329;41.594;23.810;2023-04-25T03:56:25;94531.03;;;11.99;74.28
55466;BME280;41329;41.594;23.810;2023-04-25T03:58:50;94542.88;;;12.10;74.32
55466;BME280;41329;41.594;23.810;2023-04-25T04:01:16;94547.66;;;12.10;74.27
55466;BME280;41329;41.594;23.810;2023-04-25T04:03:41;94549.63;;;12.09;74.24
55466;BME280;41329;41.594;23.810;2023-04-25T04:06:07;94559.13;;;12.08;73.90
55466;BME280;41329;41.594;23.810;2023-04-25T04:08:34;94551.59;;;12.05;74.39
55466;BME280;41329;41.594;23.810;2023-04-25T04:10:59;94544.09;;;12.06;74.60
55466;BME280;41329;41.594;23.810;2023-04-25T04:13:26;94547.66;;;12.10;74.51
55466;BME280;41329;41.594;23.810;2023-04-25T04:15:52;94550.81;;;12.05;74.53
55466;BME280;41329;41.594;23.810;2023-04-25T04:18:18;94543.72;;;12.00;74.68
55466;BME280;41329;41.594;23.810;2023-04-25T04:20:43;94551.59;;;12.09;74.91
55466;BME280;41329;41.594;23.810;2023-04-25T04:23:08;94550.44;;;12.03;75.18
55466;BME280;41329;41.594;23.810;2023-04-25T04:25:34;94553.59;;;12.08;74.89
55466;BME280;41329;41.594;23.810;2023-04-25T04:28:00;94557.13;;;12.09;74.87
55466;BME280;41329;41.594;23.810;2023-04-25T04:30:26;94546.84;;;12.09;75.00
55466;BME280;41329;41.594;23.810;2023-04-25T04:32:55;94540.16;;;12.03;75.18
55466;BME280;41329;41.594;23.810;2023-04-25T04:35:22;94537.34;;;12.07;75.01
55466;BME280;41329;41.594;23.810;2023-04-25T04:37:48;94545.25;;;12.12;75.07
55466;BME280;41329;41.594;23.810;2023-04-25T04:40:14;94564.25;;;12.17;75.24
55466;BME280;41329;41.594;23.810;2023-04-25T04:42:43;94561.09;;;12.15;75.27
55466;BME280;41329;41.594;23.810;2023-04-25T04:45:10;94557.09;;;12.19;75.03
55466;BME280;41329;41.594;23.810;2023-04-25T04:47:36;94554.31;;;12.26;75.11
55466;BME280;41329;41.594;23.810;2023-04-25T04:50:06;94551.56;;;12.23;75.53
55466;BME280;41329;41.594;23.810;2023-04-25T04:52:34;94543.25;;;12.19;75.48
55466;BME280;41329;41.594;23.810;2023-04-25T04:55:00;94551.94;;;12.28;75.46
55466;BME280;41329;41.594;23.810;2023-04-25T04:57:25;94544.38;;;12.32;75.39
55466;BME280;41329;41.594;23.810;2023-04-25T04:59:51;94543.59;;;12.35;75.52
55466;BME280;41329;41.594;23.810;2023-04-25T05:02:17;94546.34;;;12.43;75.71
55466;BME280;41329;41.594;23.810;2023-04-25T05:04:42;94544.72;;;12.48;75.50
55466;BME280;41329;41.594;23.810;2023-04-25T05:07:08;94549.47;;;12.59;75.70
55466;BME280;41329;41.594;23.810;2023-04-25T05:09:33;94540.31;;;12.65;76.01
55466;BME280;41329;41.594;23.810;2023-04-25T05:11:59;94512.97;;;12.60;76.19
55466;BME280;41329;41.594;23.810;2023-04-25T05:14:26;94533.47;;;12.80;76.07
55466;BME280;41329;41.594;23.810;2023-04-25T05:16:51;94512.91;;;12.71;75.40
55466;BME280;41329;41.594;23.810;2023-04-25T05:19:17;94530.28;;;12.85;74.50
55466;BME280;41329;41.594;23.810;2023-04-25T05:21:42;94529.50;;;12.85;74.08
55466;BME280;41329;41.594;23.810;2023-04-25T05:24:08;94525.91;;;12.84;73.71
55466;BME280;41329;41.594;23.810;2023-04-25T05:26:33;94500.25;;;12.66;72.84
55466;BME280;41329;41.594;23.810;2023-04-25T05:28:59;94530.81;;;12.63;73.64
55466;BME280;41329;41.594;23.810;2023-04-25T05:31:25;94527.25;;;12.59;74.37
55466;BME280;41329;41.594;23.810;2023-04-25T05:33:51;94507.88;;;12.48;74.76
55466;BME280;41329;41.594;23.810;2023-04-25T05:36:17;94525.72;;;12.51;75.63
55466;BME280;41329;41.594;23.810;2023-04-25T05:38:42;94511.06;;;12.43;75.99
55466;BME280;41329;41.594;23.810;2023-04-25T05:41:08;94526.53;;;12.40;76.78
55466;BME280;41329;41.594;23.810;2023-04-25T05:43:33;94528.88;;;12.49;76.75
55466;BME280;41329;41.594;23.810;2023-04-25T05:45:59;94498.38;;;12.49;76.22
55466;BME280;41329;41.594;23.810;2023-04-25T05:48:24;94510.56;;;12.66;76.20
55466;BME280;41329;41.594;23.810;2023-04-25T05:50:50;94522.00;;;12.75;75.98
55466;BME280;41329;41.594;23.810;2023-04-25T05:53:17;94519.19;;;12.82;75.86
55466;BME280;41329;41.594;23.810;2023-04-25T05:55:42;94509.00;;;12.57;75.37
55466;BME280;41329;41.594;23.810;2023-04-25T05:58:08;94514.56;;;12.61;75.16
55466;BME280;41329;41.594;23.810;2023-04-25T06:00:33;94511.38;;;12.59;74.84
55466;BME280;41329;41.594;23.810;2023-04-25T06:02:59;94505.09;;;12.52;74.94
55466;BME280;41329;41.594;23.810;2023-04-25T06:05:25;94519.28;;;12.64;74.94
55466;BME280;41329;41.594;23.810;2023-04-25T06:07:50;94514.91;;;12.70;74.63
55466;BME280;41329;41.594;23.810;2023-04-25T06:10:16;94516.06;;;12.76;74.63
55466;BME280;41329;41.594;23.810;2023-04-25T06:12:41;94488.00;;;12.64;74.42
55466;BME280;41329;41.594;23.810;2023-04-25T06:15:07;94495.06;;;12.72;74.57
55466;BME280;41329;41.594;23.810;2023-04-25T06:17:33;94518.00;;;12.86;74.09
55466;BME280;41329;41.594;23.810;2023-04-25T06:19:58;94511.22;;;12.94;74.53
55466;BME280;41329;41.594;23.810;2023-04-25T06:22:24;94520.66;;;13.04;74.91
55466;BME280;41329;41.594;23.810;2023-04-25T06:24:49;94525.38;;;13.14;75.21
55466;BME280;41329;41.594;23.810;2023-04-25T06:27:15;94521.38;;;13.18;74.57
55466;BME280;41329;41.594;23.810;2023-04-25T06:29:40;94511.47;;;13.17;74.10
55466;BME280;41329;41.594;23.810;2023-04-25T06:32:05;94528.81;;;13.32;73.40
55466;BME280;41329;41.594;23.810;2023-04-25T06:34:31;94529.66;;;13.25;72.60
55466;BME280;41329;41.594;23.810;2023-04-25T06:36:56;94516.97;;;13.21;72.48
55466;BME280;41329;41.594;23.810;2023-04-25T06:39:22;94521.31;;;13.25;71.87
55466;BME280;41329;41.594;23.810;2023-04-25T06:41:49;94522.19;;;13.15;72.00
55466;BME280;41329;41.594;23.810;2023-04-25T06:44:14;94513.03;;;13.18;72.83
55466;BME280;41329;41.594;23.810;2023-04-25T06:46:40;94510.31;;;13.11;72.45
55466;BME280;41329;41.594;23.810;2023-04-25T06:49:06;94494.84;;;13.10;72.67
55466;BME280;41329;41.594;23.810;2023-04-25T06:51:31;94491.97;;;13.24;72.59
55466;BME280;41329;41.594;23.810;2023-04-25T06:53:57;94506.19;;;13.33;71.30
55466;BME280;41329;41.594;23.810;2023-04-25T06:56:22;94504.50;;;13.46;72.67
55466;BME280;41329;41.594;23.810;2023-04-25T06:58:49;94507.59;;;13.55;72.39
55466;BME280;41329;41.594;23.810;2023-04-25T07:01:14;94503.53;;;13.63;72.44
55466;BME280;41329;41.594;23.810;2023-04-25T07:03:39;94514.72;;;13.56;70.18
55466;BME280;41329;41.594;23.810;2023-04-25T07:06:05;94517.09;;;13.58;71.10
55466;BME280;41329;41.594;23.810;2023-04-25T07:08:31;94522.25;;;13.59;70.54
55466;BME280;41329;41.594;23.810;2023-04-25T07:10:56;94509.59;;;13.51;71.16
55466;BME280;41329;41.594;23.810;2023-04-25T07:13:21;94521.03;;;13.60;70.91
55466;BME280;41329;41.594;23.810;2023-04-25T07:15:47;94520.22;;;13.63;70.69
55466;BME280;41329;41.594;23.810;2023-04-25T07:18:13;94506.41;;;13.53;70.98
55466;BME280;41329;41.594;23.810;2023-04-25T07:20:39;94516.88;;;13.82;71.48
55466;BME280;41329;41.594;23.810;2023-04-25T07:23:04;94503.63;;;13.97;71.44
55466;BME280;41329;41.594;23.810;2023-04-25T07:25:30;94495.69;;;13.95;71.94
55466;BME280;41329;41.594;23.810;2023-04-25T07:27:56;94505.38;;;14.21;71.42
55466;BME280;41329;41.594;23.810;2023-04-25T07:30:21;94499.34;;;14.26;70.95
55466;BME280;41329;41.594;23.810;2023-04-25T07:32:48;94501.59;;;14.38;70.64
55466;BME280;41329;41.594;23.810;2023-04-25T07:35:13;94498.81;;;14.38;70.00
55466;BME280;41329;41.594;23.810;2023-04-25T07:37:39;94490.03;;;14.39;69.63
55466;BME280;41329;41.594;23.810;2023-04-25T07:40:05;94508.56;;;14.53;68.95
55466;BME280;41329;41.594;23.810;2023-04-25T07:42:30;94496.16;;;14.61;69.05
55466;BME280;41329;41.594;23.810;2023-04-25T07:44:56;94506.34;;;14.71;68.08
55466;BME280;41329;41.594;23.810;2023-04-25T07:47:22;94511.84;;;14.74;68.97
55466;BME280;41329;41.594;23.810;2023-04-25T07:49:47;94502.69;;;14.77;69.00
55466;BME280;41329;41.594;23.810;2023-04-25T07:52:13;94493.91;;;14.79;69.43
55466;BME280;41329;41.594;23.810;2023-04-25T07:54:38;94503.66;;;14.94;68.29
55466;BME280;41329;41.594;23.810;2023-04-25T07:57:04;94502.34;;;15.02;67.41
55466;BME280;41329;41.594;23.810;2023-04-25T07:59:31;94496.81;;;14.98;67.14
55466;BME280;41329;41.594;23.810;2023-04-25T08:01:57;94492.41;;;15.01;67.12
55466;BME280;41329;41.594;23.810;2023-04-25T08:04:23;94504.66;;;15.07;66.58
55466;BME280;41329;41.594;23.810;2023-04-25T08:06:48;94511.31;;;15.13;66.70
55466;BME280;41329;41.594;23.810;2023-04-25T08:09:14;94509.38;;;15.10;65.91
55466;BME280;41329;41.594;23.810;2023-04-25T08:11:40;94514.50;;;15.15;65.89
55466;BME280;41329;41.594;23.810;2023-04-25T08:14:07;94507.13;;;15.28;66.25
55466;BME280;41329;41.594;23.810;2023-04-25T08:16:32;94498.28;;;15.33;65.94
55466;BME280;41329;41.594;23.810;2023-04-25T08:18:59;94510.25;;;15.33;65.29
55466;BME280;41329;41.594;23.810;2023-04-25T08:21:25;94487.09;;;15.10;64.99
55466;BME280;41329;41.594;23.810;2023-04-25T08:23:52;94505.84;;;15.32;66.19
55466;BME280;41329;41.594;23.810;2023-04-25T08:26:17;94504.84;;;15.19;65.95
55466;BME280;41329;41.594;23.810;2023-04-25T08:28:42;94511.91;;;15.27;65.44
55466;BME280;41329;41.594;23.810;2023-04-25T08:31:08;94512.19;;;15.36;66.56
55466;BME280;41329;41.594;23.810;2023-04-25T08:33:33;94506.13;;;15.41;66.40
55466;BME280;41329;41.594;23.810;2023-04-25T08:35:59;94512.66;;;15.58;65.56
55466;BME280;41329;41.594;23.810;2023-04-25T08:38:24;94514.28;;;15.55;65.44
55466;BME280;41329;41.594;23.810;2023-04-25T08:40:50;94506.28;;;15.57;65.15
55466;BME280;41329;41.594;23.810;2023-04-25T08:43:19;94508.47;;;15.69;65.45
55466;BME280;41329;41.594;23.810;2023-04-25T08:45:46;94509.19;;;15.73;65.69
55466;BME280;41329;41.594;23.810;2023-04-25T08:48:13;94505.31;;;15.90;65.03
55466;BME280;41329;41.594;23.810;2023-04-25T08:50:42;94508.75;;;15.98;65.47
55466;BME280;41329;41.594;23.810;2023-04-25T08:53:09;94499.53;;;16.24;65.76
55466;BME280;41329;41.594;23.810;2023-04-25T08:55:41;94486.28;;;16.28;62.74
55466;BME280;41329;41.594;23.810;2023-04-25T08:58:07;94498.94;;;16.32;59.95
55466;BME280;41329;41.594;23.810;2023-04-25T09:00:32;94487.44;;;16.30;60.46
55466;BME280;41329;41.594;23.810;2023-04-25T09:02:58;94493.91;;;16.47;61.77
55466;BME280;41329;41.594;23.810;2023-04-25T09:05:24;94488.31;;;16.47;61.94
55466;BME280;41329;41.594;23.810;2023-04-25T09:07:50;94496.78;;;16.63;63.57
55466;BME280;41329;41.594;23.810;2023-04-25T09:10:15;94480.19;;;16.91;65.44
55466;BME280;41329;41.594;23.810;2023-04-25T09:12:41;94471.28;;;17.16;63.50
55466;BME280;41329;41.594;23.810;2023-04-25T09:15:11;94480.66;;;17.41;61.23
55466;BME280;41329;41.594;23.810;2023-04-25T09:17:37;94466.28;;;17.59;60.94
55466;BME280;41329;41.594;23.810;2023-04-25T09:20:11;94479.78;;;17.92;63.72
55466;BME280;41329;41.594;23.810;2023-04-25T09:22:38;94469.09;;;18.20;62.36
55466;BME280;41329;41.594;23.810;2023-04-25T09:25:11;94473.72;;;18.55;61.43
55466;BME280;41329;41.594;23.810;2023-04-25T09:27:49;94467.41;;;18.22;56.19
55466;BME280;41329;41.594;23.810;2023-04-25T09:30:16;94460.94;;;18.25;54.38
55466;BME280;41329;41.594;23.810;2023-04-25T09:32:43;94466.53;;;18.25;54.62
55466;BME280;41329;41.594;23.810;2023-04-25T09:35:09;94451.44;;;18.07;54.40
55466;BME280;41329;41.594;23.810;2023-04-25T09:37:34;94431.16;;;18.03;55.86
55466;BME280;41329;41.594;23.810;2023-04-25T09:40:05;94440.25;;;18.07;53.29
55466;BME280;41329;41.594;23.810;2023-04-25T09:42:31;94444.81;;;18.29;53.76
55466;BME280;41329;41.594;23.810;2023-04-25T09:45:00;94447.16;;;18.31;54.69
55466;BME280;41329;41.594;23.810;2023-04-25T09:47:27;94434.41;;;18.58;53.39
55466;BME280;41329;41.594;23.810;2023-04-25T09:49:54;94436.69;;;18.63;51.19
55466;BME280;41329;41.594;23.810;2023-04-25T09:52:24;94430.53;;;18.81;54.64
55466;BME280;41329;41.594;23.810;2023-04-25T09:54:50;94428.31;;;19.13;55.91
55466;BME280;41329;41.594;23.810;2023-04-25T09:57:18;94415.13;;;19.39;53.73
55466;BME280;41329;41.594;23.810;2023-04-25T09:59:46;94404.53;;;19.68;54.96
55466;BME280;41329;41.594;23.810;2023-04-25T10:02:14;94415.88;;;19.52;50.09
55466;BME280;41329;41.594;23.810;2023-04-25T10:04:41;94413.97;;;19.49;51.68
55466;BME280;41329;41.594;23.810;2023-04-25T10:07:08;94409.84;;;19.28;48.92
55466;BME280;41329;41.594;23.810;2023-04-25T10:09:36;94391.56;;;19.24;46.70
55466;BME280;41329;41.594;23.810;2023-04-25T10:12:03;94401.88;;;19.52;48.79
55466;BME280;41329;41.594;23.810;2023-04-25T10:14:32;94385.78;;;19.65;46.22
55466;BME280;41329;41.594;23.810;2023-04-25T10:16:58;94388.00;;;19.70;48.55
55466;BME280;41329;41.594;23.810;2023-04-25T10:19:25;94395.91;;;19.96;49.10
55466;BME280;41329;41.594;23.810;2023-04-25T10:21:54;94377.91;;;20.19;47.55
55466;BME280;41329;41.594;23.810;2023-04-25T10:24:21;94363.66;;;20.13;45.57
55466;BME280;41329;41.594;23.810;2023-04-25T10:26:47;94375.56;;;20.05;45.31
55466;BME280;41329;41.594;23.810;2023-04-25T10:29:21;94367.09;;;20.17;45.79
55466;BME280;41329;41.594;23.810;2023-04-25T10:31:47;94349.38;;;20.08;42.92
55466;BME280;41329;41.594;23.810;2023-04-25T10:34:13;94355.56;;;20.15;44.55
55466;BME280;41329;41.594;23.810;2023-04-25T10:36:38;94348.22;;;20.39;46.12
55466;BME280;41329;41.594;23.810;2023-04-25T10:39:05;94337.78;;;20.61;44.39
55466;BME280;41329;41.594;23.810;2023-04-25T10:42:06;94329.41;;;21.01;46.27
55466;BME280;41329;41.594;23.810;2023-04-25T10:44:33;94313.00;;;20.99;44.91
55466;BME280;41329;41.594;23.810;2023-04-25T10:47:00;94323.22;;;21.15;43.16
55466;BME280;41329;41.594;23.810;2023-04-25T10:49:34;94308.00;;;21.03;43.51
55466;BME280;41329;41.594;23.810;2023-04-25T10:54:51;94317.00;;;20.59;43.00
55466;BME280;41329;41.594;23.810;2023-04-25T11:00:20;94311.03;;;20.57;42.53
55466;BME280;41329;41.594;23.810;2023-04-25T11:02:57;94276.72;;;20.62;41.48
55466;BME280;41329;41.594;23.810;2023-04-25T11:05:36;94291.94;;;20.73;39.57
55466;BME280;41329;41.594;23.810;2023-04-25T11:08:02;94304.47;;;20.51;40.54
55466;BME280;41329;41.594;23.810;2023-04-25T11:10:30;94298.59;;;20.36;41.17
55466;BME280;41329;41.594;23.810;2023-04-25T11:12:59;94301.97;;;20.53;41.91
55466;BME280;41329;41.594;23.810;2023-04-25T11:15:25;94290.13;;;20.58;40.12
55466;BME280;41329;41.594;23.810;2023-04-25T11:17:55;94300.22;;;20.03;39.43
55466;BME280;41329;41.594;23.810;2023-04-25T11:20:21;94276.69;;;19.88;41.33
55466;BME280;41329;41.594;23.810;2023-04-25T11:22:47;94297.25;;;20.07;39.93
55466;BME280;41329;41.594;23.810;2023-04-25T11:25:15;94296.53;;;19.94;40.95
55466;BME280;41329;41.594;23.810;2023-04-25T11:27:55;94281.91;;;19.99;40.67
55466;BME280;41329;41.594;23.810;2023-04-25T11:30:25;94288.47;;;19.96;40.20
55466;BME280;41329;41.594;23.810;2023-04-25T11:32:51;94283.03;;;19.46;39.17
55466;BME280;41329;41.594;23.810;2023-04-25T11:35:18;94288.00;;;19.63;40.21
55466;BME280;41329;41.594;23.810;2023-04-25T11:37:44;94276.03;;;19.63;39.54
55466;BME280;41329;41.594;23.810;2023-04-25T11:40:10;94290.41;;;19.86;39.10
55466;BME280;41329;41.594;23.810;2023-04-25T11:42:43;94298.41;;;19.75;39.08
55466;BME280;41329;41.594;23.810;2023-04-25T11:45:09;94309.31;;;19.39;41.15
55466;BME280;41329;41.594;23.810;2023-04-25T11:47:35;94328.41;;;19.19;42.14
55466;BME280;41329;41.594;23.810;2023-04-25T11:50:02;94317.19;;;18.94;42.61
55466;BME280;41329;41.594;23.810;2023-04-25T11:52:44;94318.28;;;18.34;46.82
55466;BME280;41329;41.594;23.810;2023-04-25T11:55:13;94321.44;;;18.08;47.71
55466;BME280;41329;41.594;23.810;2023-04-25T11:57:40;94327.94;;;18.05;48.31
55466;BME280;41329;41.594;23.810;2023-04-25T12:00:17;94322.75;;;17.91;50.35
55466;BME280;41329;41.594;23.810;2023-04-25T12:02:46;94326.97;;;17.83;49.59
55466;BME280;41329;41.594;23.810;2023-04-25T12:05:13;94282.78;;;17.61;52.48
55466;BME280;41329;41.594;23.810;2023-04-25T12:07:39;94310.81;;;18.03;55.16
55466;BME280;41329;41.594;23.810;2023-04-25T12:10:12;94267.94;;;18.18;52.75
55466;BME280;41329;41.594;23.810;2023-04-25T12:12:41;94282.44;;;18.42;51.59
55466;BME280;41329;41.594;23.810;2023-04-25T12:15:12;94273.38;;;18.50;51.48
55466;BME280;41329;41.594;23.810;2023-04-25T12:17:41;94285.81;;;18.74;53.58
55466;BME280;41329;41.594;23.810;2023-04-25T12:20:20;94269.78;;;19.00;52.76
55466;BME280;41329;41.594;23.810;2023-04-25T12:22:49;94272.13;;;19.60;53.90
55466;BME280;41329;41.594;23.810;2023-04-25T12:30:57;94260.19;;;20.12;43.07
55466;BME280;41329;41.594;23.810;2023-04-25T12:33:24;94254.81;;;20.05;44.70
55466;BME280;41329;41.594;23.810;2023-04-25T12:35:50;94255.59;;;20.05;43.30
55466;BME280;41329;41.594;23.810;2023-04-25T12:38:29;94251.69;;;20.03;42.26
55466;BME280;41329;41.594;23.810;2023-04-25T12:40:56;94240.66;;;19.87;43.37
55466;BME280;41329;41.594;23.810;2023-04-25T12:43:21;94247.91;;;19.97;42.45
55466;BME280;41329;41.594;23.810;2023-04-25T12:45:48;94252.63;;;20.00;41.05
55466;BME280;41329;41.594;23.810;2023-04-25T12:48:14;94244.25;;;19.87;41.80
55466;BME280;41329;41.594;23.810;2023-04-25T12:50:39;94239.16;;;19.95;41.96
55466;BME280;41329;41.594;23.810;2023-04-25T12:53:06;94242.75;;;19.95;41.51
55466;BME280;41329;41.594;23.810;2023-04-25T12:55:31;94251.75;;;19.90;42.08
55466;BME280;41329;41.594;23.810;2023-04-25T12:57:57;94256.63;;;19.99;42.34